x

Ilm3 - 27 Miles Se Of Wrightsville Beach, Nc (41037) Weather Station

5:00 - Wed 17th Sep 2014 All times are EDT. -4 hours from GMT.

  • Wind
    11mph
  • Sea Temp 82°f
  • Luft Temp 73°f
  • Sea Pressure 1012.1mb
  • Ilm3 - 27 Miles Se Of Wrightsville Beach, Nc
  • Ilm3 - 27 Miles Se Of Wrightsville Beach, Nc

More Historic Weather Station data

Upgrade to MSW Pro to gain access to the past 30 days of data for over 8000 Wavebouys and Weather Stations around the globe.

Join Pro

Comparision Forecast

View Surf forecast
   
Mi 09/17 5:00 11
mph
1012.1mb 82f 73f
4:00 4 7 mph 1011.6mb 82f 75f
3:00 20 22 mph 1012.5mb 82f 72f
2:00 7 9 mph 1013.6mb 82f 76f
1:00 2
mph
1013.8mb 82f 76f
12:00 7
mph
1014.1mb 82f 76f
Di 09/16 11:00 9 11 mph 1013.7mb 82f 76f
10:00 9 11 mph 1014.3mb 82f 76f
9:00 9
mph
1014.6mb 82f 76f
8:00 7 9 mph 1014.1mb 82f 76f
7:00 7 9 mph 1014mb 82f 76f
6:00 4 7 mph 1014.3mb 82f 76f
5:00 7 9 mph 1014.2mb 82f 76f
4:00 9
mph
1014.5mb 82f 75f
3:00 11 13 mph 1014.9mb 82f 75f
2:00 11 13 mph 1015.4mb 82f 75f
1:00 11 13 mph 1016.1mb 82f 74f
12:00 11 13 mph 1016.6mb 82f 74f
11:00 7 9 mph 1017.1mb 82f 73f
10:00 9 11 mph 1017.1mb 81f 73f
9:00 13 18 mph 1016.8mb 82f 76f
8:00 11 13 mph 1016.7mb 82f 76f
7:00 13 16 mph 1016.7mb 82f 76f
6:00 7 9 mph 1017.1mb 82f 76f
5:00 7
mph
1016.9mb 82f 75f
4:00 7
mph
1017.1mb 82f 74f
3:00 4
mph
1017.7mb 82f 74f
2:00 7
mph
1018.2mb 82f 74f
1:00 4 7 mph 1019mb 82f 74f
12:00 4
mph
1019.7mb 82f 74f
Mo 09/15 11:00 7 9 mph 1020mb 82f 74f
10:00 7
mph
1020mb 82f 74f
9:00 4 7 mph 1020mb 82f 74f
8:00 7 9 mph 1019.7mb 82f 74f
7:00 7 9 mph 1019.6mb 82f 74f
6:00 11 13 mph 1019.7mb 82f 74f
5:00 7 9 mph 1020.1mb 82f 74f
4:00 11 13 mph 1020.5mb 82f 74f
3:00 11 16 mph 1020.9mb 82f 73f
2:00 13 16 mph 1021.5mb 82f 73f
1:00 13 18 mph 1021.7mb 82f 73f
12:00 11 16 mph 1022mb 82f 73f
11:00 16 18 mph 1022.1mb 82f 73f
10:00 16 18 mph 1021.9mb 82f 73f
9:00 11 13 mph 1022.3mb 82f 73f
8:00 13 16 mph 1022.1mb 82f 73f
7:00 13 16 mph 1021.9mb 82f 73f
6:00 13 16 mph 1021.4mb 82f 73f
5:00 13 16 mph 1021mb 82f 73f
4:00 13 18 mph 1020.9mb 83f 73f
3:00 11 13 mph 1021mb 83f 73f
2:00 11 13 mph 1021.2mb 83f 73f
1:00 16 18 mph 1021.1mb 83f 73f
12:00 11 13 mph 1021.7mb 83f 73f
So 09/14 11:00 13 18 mph 1021.5mb 83f 73f
10:00 13 18 mph 1021.6mb 83f 73f
9:00 18 22 mph 1021.4mb 83f 73f
8:00 18 20 mph 1021.2mb 83f 74f
7:00 18 20 mph 1020.8mb 83f 74f
6:00 16 18 mph 1020.9mb 83f 73f
5:00 18 22 mph 1020.6mb 83f 74f
4:00 18 22 mph 1021.1mb 83f 74f
3:00 18 20 mph 1021.1mb 83f 74f
2:00 20 22 mph 1021.5mb 83f 74f
1:00 18 22 mph 1021.3mb 83f 73f
12:00 20 22 mph 1021.5mb 83f 73f
11:00 22 27 mph 1021.8mb 82f 73f
10:00 20 22 mph 1021.5mb 82f 73f
9:00 20 22 mph 1021.2mb 82f 73f
8:00 22 25 mph 1020.9mb 82f 73f
7:00 18 22 mph 1020.9mb 82f 73f
6:00 20 25 mph 1020mb 82f 73f
5:00 16 18 mph 1019.4mb 82f 75f
4:00 18 20 mph 1019.3mb 82f 75f
3:00 18 20 mph 1019mb 82f 75f
2:00 16 18 mph 1019mb 82f 76f
1:00 9 11 mph 1019.4mb 83f 77f
12:00 11 13 mph 1019.4mb 83f 77f
Sa 09/13 11:00 11 13 mph 1019.5mb 83f 77f
10:00 4 7 mph 1019.4mb 83f 78f
9:00 4
mph
1018.8mb 83f 79f
8:00 4
mph
1018.4mb 83f 79f
7:00 7
mph
1018.1mb 83f 79f
6:00 4
mph
1017.4mb 83f 79f
5:00 7 9 mph 1017.2mb 83f 80f
4:00 7 9 mph 1017.4mb 84f 80f
3:00 7
mph
1017.5mb 83f 80f
2:00 7
mph
1018.3mb 83f 80f
1:00 4 7 mph 1018.7mb 83f 79f
12:00 4
mph
1018.8mb 83f 79f
11:00 2 4 mph 1018.9mb 82f 79f